Time;durP1;ratioP1;P1;durP2;ratioP2;P2;SDS_P1;SDS_P2;PMS_P1;PMS_P2;Temp;Humidity;BMP_temperature;BMP_pressure;BME280_temperature;BME280_humidity;BME280_pressure;Samples;Min_cycle;Max_cycle;Signal;HPM_P1;HPM_P2
2022/04/16 00:01:05;;;;;;;17.98;12.48;;;333.00;2227.20;;;;;;4826558;29;20098;-77
2022/04/16 00:03:33;;;;;;;17.90;12.65;;;333.10;2201.60;;;;;;4842937;29;20105;-77
2022/04/16 00:05:58;;;;;;;16.75;13.82;;;333.10;2150.40;;;;;;4842929;29;20496;-77
2022/04/16 00:08:31;;;;;;;18.88;13.40;;;333.00;2278.40;;;;;;4842865;29;20030;-77
2022/04/16 00:10:57;;;;;;;16.95;12.15;;;332.90;2304.00;;;;;;4842866;29;20022;-75
2022/04/16 00:13:23;;;;;;;22.52;14.07;;;333.00;2227.20;;;;;;4842949;29;20060;-75
2022/04/16 00:15:52;;;;;;;19.77;13.45;;;332.90;2304.00;;;;;;4842857;29;20026;-74
2022/04/16 00:18:19;;;;;;;17.90;12.50;;;332.80;2329.60;;;;;;4842692;29;20034;-71
2022/04/16 00:20:48;;;;;;;17.73;12.55;;;332.90;2278.40;;;;;;4842423;29;20034;-73
2022/04/16 00:23:14;;;;;;;20.67;13.40;;;332.90;2329.60;;;;;;4842783;29;20061;-74
2022/04/16 00:25:41;;;;;;;16.15;13.10;;;308.10;2304.00;;;;;;4842525;29;20479;-74
2022/04/16 00:28:08;;;;;;;17.45;13.20;;;308.00;2304.00;;;;;;4826484;29;20110;-73
2022/04/16 00:30:40;;;;;;;18.30;13.27;;;307.90;2304.00;;;;;;4842408;29;20107;-73
2022/04/16 00:33:12;;;;;;;17.70;13.43;;;307.90;2304.00;;;;;;4842594;29;20050;-73
2022/04/16 00:35:40;;;;;;;18.13;12.85;;;307.70;2304.00;;;;;;4842692;29;20026;-71
2022/04/16 00:38:06;;;;;;;20.05;13.55;;;307.60;2304.00;;;;;;4844134;29;20461;-71
2022/04/16 00:40:31;;;;;;;18.35;12.85;;;307.60;2304.00;;;;;;4845289;29;20037;-71
2022/04/16 00:42:58;;;;;;;22.15;13.45;;;307.70;2304.00;;;;;;4846107;29;20034;-73
2022/04/16 00:45:25;;;;;;;17.60;12.52;;;307.70;2304.00;;;;;;4845902;29;20030;-72
2022/04/16 00:47:51;;;;;;;17.85;12.65;;;307.70;2304.00;;;;;;4845959;29;20540;-71
2022/04/16 00:50:16;;;;;;;17.45;12.98;;;307.70;2304.00;;;;;;4845766;29;20057;-73
2022/04/16 00:52:44;;;;;;;18.63;13.70;;;307.60;2304.00;;;;;;4845576;29;20053;-71
2022/04/16 00:55:11;;;;;;;20.02;13.77;;;307.60;2304.00;;;;;;4845614;29;20029;-72
2022/04/16 00:57:41;;;;;;;19.58;14.27;;;307.80;2304.00;;;;;;4845399;29;20465;-70
2022/04/16 01:00:12;;;;;;;18.25;13.20;;;307.80;2304.00;;;;;;4845836;29;20052;-71
2022/04/16 01:02:38;;;;;;;17.80;13.65;;;307.90;2304.00;;;;;;4845644;29;20117;-71
2022/04/16 01:05:05;;;;;;;21.40;14.27;;;307.90;2304.00;;;;;;4845476;29;20022;-70
2022/04/16 01:07:32;;;;;;;20.77;14.13;;;307.70;2304.00;;;;;;4845541;29;20030;-70
2022/04/16 01:09:58;;;;;;;22.17;14.05;;;307.80;2304.00;;;;;;4845034;29;20069;-71
2022/04/16 01:12:24;;;;;;;17.52;13.10;;;307.90;2304.00;;;;;;4845252;29;20133;-69
2022/04/16 01:14:50;;;;;;;18.83;13.38;;;307.80;2304.00;;;;;;4845524;29;20113;-71
2022/04/16 01:17:17;;;;;;;16.20;12.18;;;307.80;2304.00;;;;;;4828759;29;20037;-70
2022/04/16 01:19:43;;;;;;;21.75;13.65;;;307.90;2304.00;;;;;;4845068;29;20103;-68
2022/04/16 01:22:11;;;;;;;18.20;12.95;;;307.80;2304.00;;;;;;4845457;29;20030;-70
2022/04/16 01:24:38;;;;;;;16.52;12.60;;;307.90;2304.00;;;;;;4845087;29;20354;-69
2022/04/16 01:27:04;;;;;;;18.52;12.45;;;307.90;2304.00;;;;;;4845327;29;20030;-70
2022/04/16 01:29:30;;;;;;;14.38;12.52;;;308.00;2278.40;;;;;;4845090;29;20061;-69
2022/04/16 01:31:57;;;;;;;16.17;13.07;;;308.00;2304.00;;;;;;4845089;29;20074;-69
2022/04/16 01:34:25;;;;;;;16.27;12.93;;;307.90;2304.00;;;;;;4844938;29;20396;-69
2022/04/16 01:36:52;;;;;;;15.15;12.00;;;307.80;2304.00;;;;;;4827973;29;20562;-68
2022/04/16 01:39:18;;;;;;;16.92;12.63;;;307.80;2304.00;;;;;;4845099;29;20042;-68
2022/04/16 01:41:44;;;;;;;18.65;13.75;;;307.90;2278.40;;;;;;4845033;29;20480;-69
2022/04/16 01:44:09;;;;;;;16.17;12.20;;;307.70;2278.40;;;;;;4844364;29;20037;-69
2022/04/16 01:46:36;;;;;;;15.85;12.45;;;307.90;2278.40;;;;;;4828410;29;20061;-69
2022/04/16 01:49:02;;;;;;;16.52;12.25;;;307.90;2252.80;;;;;;4844162;29;20414;-69
2022/04/16 01:51:28;;;;;;;16.42;12.32;;;307.90;2227.20;;;;;;4844390;29;20392;-68
2022/04/16 01:53:53;;;;;;;14.02;12.02;;;308.00;2227.20;;;;;;4844398;29;20042;-68
2022/04/16 01:56:19;;;;;;;16.33;12.02;;;308.10;2227.20;;;;;;4844690;29;20026;-69
2022/04/16 01:58:45;;;;;;;15.07;12.00;;;308.10;2227.20;;;;;;4844327;29;20034;-69
2022/04/16 02:01:11;;;;;;;15.07;11.82;;;308.10;2201.60;;;;;;4827993;29;20179;-68
2022/04/16 02:03:37;;;;;;;16.77;11.57;;;308.10;2227.20;;;;;;4844321;29;20034;-68
2022/04/16 02:06:04;;;;;;;13.45;10.95;;;308.10;2124.80;;;;;;4844541;29;20033;-67
2022/04/16 02:08:30;;;;;;;16.90;11.82;;;332.80;2176.00;;;;;;4844541;29;20113;-68
2022/04/16 02:10:55;;;;;;;14.63;11.93;;;332.80;2176.00;;;;;;4844272;29;20106;-68
2022/04/16 02:13:21;;;;;;;15.52;12.55;;;332.80;2124.80;;;;;;4844299;29;20041;-68
2022/04/16 02:15:47;;;;;;;15.60;12.63;;;332.80;2201.60;;;;;;4844245;29;20033;-68
2022/04/16 02:18:13;;;;;;;18.13;11.68;;;332.80;2227.20;;;;;;4844335;29;20045;-67
2022/04/16 02:20:41;;;;;;;16.02;12.73;;;332.80;2124.80;;;;;;4844276;29;20034;-68
2022/04/16 02:23:09;;;;;;;17.17;12.02;;;332.80;2150.40;;;;;;4844081;29;20439;-67
2022/04/16 02:25:35;;;;;;;13.13;11.50;;;332.80;2176.00;;;;;;4844291;29;20030;-67
2022/04/16 02:28:01;;;;;;;14.68;12.13;;;332.80;2176.00;;;;;;4844051;29;20491;-68
2022/04/16 02:30:30;;;;;;;16.15;12.15;;;332.90;2150.40;;;;;;4843950;29;20058;-68
2022/04/16 02:32:56;;;;;;;16.98;12.15;;;332.90;2150.40;;;;;;4844052;29;20481;-68
2022/04/16 02:35:23;;;;;;;14.82;11.52;;;332.90;2150.40;;;;;;4843997;29;20034;-68
2022/04/16 02:37:49;;;;;;;15.25;12.82;;;332.90;2150.40;;;;;;4843923;29;20469;-67
2022/04/16 02:40:16;;;;;;;14.27;11.57;;;332.80;2150.40;;;;;;4843988;29;20108;-68
2022/04/16 02:42:43;;;;;;;16.88;11.88;;;332.80;2150.40;;;;;;4843904;29;20052;-67
2022/04/16 02:47:56;;;;;;;17.35;13.35;;;308.10;2150.40;;;;;;4844112;29;20093;-68
2022/04/16 02:50:24;;;;;;;18.63;13.23;;;332.80;2150.40;;;;;;4843247;29;20037;-67
2022/04/16 02:52:51;;;;;;;14.15;12.02;;;332.80;2176.00;;;;;;4843680;29;20061;-67
2022/04/16 02:55:17;;;;;;;16.10;12.40;;;332.80;2099.20;;;;;;4843491;29;20034;-67
2022/04/16 02:57:43;;;;;;;14.77;11.43;;;332.80;2150.40;;;;;;4843748;29;20044;-67
2022/04/16 03:00:11;;;;;;;17.95;12.52;;;308.10;2099.20;;;;;;4843651;29;20026;-67
2022/04/16 03:02:37;;;;;;;17.52;12.90;;;308.10;2099.20;;;;;;4843170;29;20045;-67
2022/04/16 03:05:06;;;;;;;15.18;12.40;;;308.00;2176.00;;;;;;4843465;29;20461;-67
2022/04/16 03:07:36;;;;;;;17.40;13.77;;;308.00;2124.80;;;;;;4843449;29;20087;-67
2022/04/16 03:10:03;;;;;;;16.90;13.38;;;307.80;2201.60;;;;;;4843606;29;20064;-67
2022/04/16 03:12:43;;;;;;;15.38;12.30;;;307.70;2227.20;;;;;;4843146;29;20037;-67
2022/04/16 03:17:54;;;;;;;15.43;11.85;;;307.60;2227.20;;;;;;4843781;29;20083;-67
2022/04/16 03:20:20;;;;;;;14.02;12.07;;;307.50;2227.20;;;;;;4843147;29;20082;-67
2022/04/16 03:22:46;;;;;;;16.80;13.20;;;307.50;2176.00;;;;;;4843329;29;20030;-67
2022/04/16 03:25:11;;;;;;;18.98;13.25;;;307.40;2176.00;;;;;;4843286;29;20033;-67
2022/04/16 03:27:37;;;;;;;16.70;13.30;;;307.40;2227.20;;;;;;4843282;29;20041;-66
2022/04/16 03:30:05;;;;;;;18.50;13.55;;;307.40;2252.80;;;;;;4843055;29;20037;-67
2022/04/16 03:32:30;;;;;;;17.10;13.90;;;307.40;2227.20;;;;;;4842906;29;20469;-66
2022/04/16 03:34:59;;;;;;;19.20;14.45;;;307.40;2227.20;;;;;;4843188;29;20026;-67
2022/04/16 03:37:25;;;;;;;16.80;12.55;;;307.40;2227.20;;;;;;4843041;29;20481;-67
2022/04/16 03:39:51;;;;;;;18.83;14.02;;;307.40;2227.20;;;;;;4843099;29;20037;-67
2022/04/16 03:42:18;;;;;;;16.67;12.57;;;307.30;2252.80;;;;;;4843018;29;20034;-67
2022/04/16 03:44:44;;;;;;;16.05;13.38;;;307.40;2252.80;;;;;;4843090;29;20086;-66
2022/04/16 03:47:11;;;;;;;16.77;12.80;;;307.30;2278.40;;;;;;4843149;29;20096;-67
2022/04/16 03:49:37;;;;;;;24.83;17.27;;;307.30;2278.40;;;;;;4842923;29;20026;-66
2022/04/16 03:52:04;;;;;;;25.50;19.70;;;282.50;2278.40;;;;;;4843005;29;20038;-66
2022/04/16 04:00:08;;;;;;;20.75;16.08;;;282.40;2278.40;;;;;;4843133;29;20037;-66
2022/04/16 04:02:36;;;;;;;17.73;13.57;;;282.10;2278.40;;;;;;4843142;29;20022;-66
2022/04/16 04:05:03;;;;;;;18.20;13.38;;;282.30;2278.40;;;;;;4842978;29;20053;-66
2022/04/16 04:07:29;;;;;;;19.10;13.20;;;282.20;2278.40;;;;;;4843162;29;20350;-66
2022/04/16 04:09:55;;;;;;;14.40;11.57;;;281.90;2278.40;;;;;;4842766;29;20030;-66
2022/04/16 04:12:21;;;;;;;19.80;14.55;;;282.10;2278.40;;;;;;4842371;29;20048;-66
2022/04/16 04:14:47;;;;;;;17.85;13.32;;;282.10;2278.40;;;;;;4845738;29;20130;-66
2022/04/16 04:17:14;;;;;;;16.63;12.80;;;282.10;2278.40;;;;;;4846504;29;20056;-65
2022/04/16 04:19:45;;;;;;;19.05;12.88;;;282.30;2278.40;;;;;;4846343;29;20029;-66
2022/04/16 04:22:14;;;;;;;14.80;12.02;;;282.30;2278.40;;;;;;4829379;29;20042;-65
2022/04/16 04:24:41;;;;;;;12.32;11.00;;;282.40;2278.40;;;;;;4846375;29;20465;-66
2022/04/16 04:27:07;;;;;;;13.90;10.88;;;282.50;2278.40;;;;;;4829559;29;20034;-65
2022/04/16 04:29:34;;;;;;;15.90;11.60;;;307.20;2304.00;;;;;;4846218;29;20030;-66
2022/04/16 04:32:00;;;;;;;13.18;10.95;;;307.20;2304.00;;;;;;4845180;29;20110;-66
2022/04/16 04:34:26;;;;;;;12.23;10.15;;;307.40;2252.80;;;;;;4846059;29;20030;-66
2022/04/16 04:36:52;;;;;;;15.35;10.60;;;307.40;2278.40;;;;;;4828627;29;20034;-65
2022/04/16 04:39:17;;;;;;;14.70;10.55;;;307.50;2278.40;;;;;;4846065;29;20087;-65
2022/04/16 04:41:44;;;;;;;23.60;13.15;;;307.60;2252.80;;;;;;4845932;29;20034;-66
2022/04/16 04:44:13;;;;;;;18.90;11.73;;;307.60;2252.80;;;;;;4846419;29;20030;-66
2022/04/16 04:46:40;;;;;;;18.73;12.20;;;307.70;2201.60;;;;;;4845794;29;20037;-65
2022/04/16 04:49:09;;;;;;;14.60;10.00;;;307.80;2201.60;;;;;;4845889;29;20511;-65
2022/04/16 04:51:35;;;;;;;12.88;10.48;;;307.80;2176.00;;;;;;4829333;29;20034;-66
2022/04/16 04:54:02;;;;;;;17.48;10.38;;;307.90;2176.00;;;;;;4845811;29;20388;-65
2022/04/16 04:56:29;;;;;;;14.43;10.10;;;307.90;2176.00;;;;;;4845614;29;20030;-66
2022/04/16 04:58:55;;;;;;;14.10;10.32;;;308.00;2150.40;;;;;;4845501;29;20054;-65
2022/04/16 05:01:21;;;;;;;15.75;10.98;;;308.00;2150.40;;;;;;4845824;29;20080;-65
2022/04/16 05:03:46;;;;;;;15.85;11.52;;;308.00;2124.80;;;;;;4845570;29;20488;-65
2022/04/16 05:06:12;;;;;;;17.27;10.88;;;307.90;2124.80;;;;;;4845710;29;20038;-65
2022/04/16 05:08:38;;;;;;;19.42;12.43;;;307.90;2124.80;;;;;;4828956;29;20030;-65
2022/04/16 05:11:04;;;;;;;17.42;11.73;;;307.80;2124.80;;;;;;4845551;29;20033;-66
2022/04/16 05:13:29;;;;;;;16.00;11.15;;;307.70;2150.40;;;;;;4845197;29;20462;-65
2022/04/16 05:15:55;;;;;;;20.17;11.45;;;307.70;2176.00;;;;;;4845374;29;20034;-65
2022/04/16 05:18:21;;;;;;;15.48;11.65;;;307.70;2150.40;;;;;;4844681;29;20033;-65
2022/04/16 05:20:46;;;;;;;15.02;11.00;;;307.60;2201.60;;;;;;4845405;29;20057;-65
2022/04/16 05:23:12;;;;;;;19.17;11.20;;;307.70;2176.00;;;;;;4845316;29;20492;-66
2022/04/16 05:25:38;;;;;;;15.10;11.18;;;307.70;2124.80;;;;;;4844244;29;20046;-65
2022/04/16 05:28:04;;;;;;;15.15;10.85;;;307.70;2201.60;;;;;;4827838;29;20117;-65
2022/04/16 05:30:44;;;;;;;17.45;10.52;;;307.70;2150.40;;;;;;4844937;29;20060;-65
2022/04/16 05:34:18;;;;;;;19.50;11.27;;;307.70;2124.80;;;;;;4844903;29;20049;-65
2022/04/16 05:36:03;;;;;;;13.10;10.05;;;307.70;2124.80;;;;;;4845050;29;20028;-65
2022/04/16 05:38:29;;;;;;;12.77;10.00;;;307.70;2124.80;;;;;;4844868;29;20034;-65
2022/04/16 05:40:55;;;;;;;15.15;11.00;;;307.70;2124.80;;;;;;4828317;29;20073;-66
2022/04/16 05:43:21;;;;;;;11.73;9.68;;;307.70;2124.80;;;;;;4844628;29;20377;-65
2022/04/16 05:45:47;;;;;;;13.75;9.57;;;307.60;2124.80;;;;;;4845029;29;20091;-65
2022/04/16 05:48:13;;;;;;;15.35;10.48;;;307.60;2150.40;;;;;;4844375;29;20041;-65
2022/04/16 05:50:39;;;;;;;14.90;11.05;;;307.60;2150.40;;;;;;4844760;29;20431;-65
2022/04/16 05:53:10;;;;;;;14.48;10.65;;;307.70;2150.40;;;;;;4844801;29;20393;-65
2022/04/16 05:55:39;;;;;;;14.82;11.60;;;307.80;2201.60;;;;;;4828394;29;20030;-65
2022/04/16 05:58:04;;;;;;;14.65;11.30;;;307.80;2150.40;;;;;;4844768;29;20053;-65
2022/04/16 06:00:30;;;;;;;15.98;11.02;;;307.90;2176.00;;;;;;4844698;29;20068;-65
2022/04/16 06:02:57;;;;;;;14.63;10.32;;;307.90;2150.40;;;;;;4844447;29;20041;-65
2022/04/16 06:05:23;;;;;;;12.35;10.20;;;307.90;2124.80;;;;;;4844587;29;20415;-65
2022/04/16 06:07:49;;;;;;;15.68;10.52;;;308.10;2124.80;;;;;;4844582;29;20041;-66
2022/04/16 06:10:15;;;;;;;14.23;10.90;;;308.00;2073.60;;;;;;4844609;29;20389;-65
2022/04/16 06:12:41;;;;;;;14.00;10.68;;;308.00;2073.60;;;;;;4844205;29;20040;-65
2022/04/16 06:15:07;;;;;;;13.40;10.52;;;308.00;2073.60;;;;;;4844206;29;20037;-65
2022/04/16 06:17:34;;;;;;;12.02;10.27;;;308.00;2048.00;;;;;;4844492;29;20033;-65
2022/04/16 06:19:59;;;;;;;17.77;9.82;;;308.10;2073.60;;;;;;4844086;29;20026;-65
2022/04/16 06:22:25;;;;;;;13.55;10.15;;;308.10;2073.60;;;;;;4844044;29;20389;-64
2022/04/16 06:24:51;;;;;;;17.67;12.20;;;308.00;2073.60;;;;;;4844176;29;20050;-65
2022/04/16 06:27:17;;;;;;;13.52;10.65;;;308.10;2073.60;;;;;;4843877;29;20396;-66
2022/04/16 06:29:42;;;;;;;17.17;12.10;;;332.80;2073.60;;;;;;4844295;29;20098;-65
2022/04/16 06:32:08;;;;;;;20.05;12.32;;;332.80;2048.00;;;;;;4843598;29;20378;-68
2022/04/16 06:34:34;;;;;;;13.18;11.02;;;332.80;2022.40;;;;;;4845718;29;20035;-64
2022/04/16 06:36:59;;;;;;;13.93;10.65;;;332.80;2022.40;;;;;;4852433;29;20018;-65
2022/04/16 06:39:26;;;;;;;13.75;10.98;;;332.80;2022.40;;;;;;4850675;29;20553;-66
2022/04/16 06:41:51;;;;;;;17.52;11.52;;;332.90;1996.80;;;;;;4835504;29;20436;-65
2022/04/16 06:44:31;;;;;;;19.30;13.02;;;332.90;2022.40;;;;;;4838836;29;20073;-64
2022/04/16 06:46:57;;;;;;;16.48;11.70;;;333.00;2022.40;;;;;;4862399;29;20040;-64
2022/04/16 06:49:25;;;;;;;20.70;14.35;;;332.90;2022.40;;;;;;4862245;29;20033;-64
2022/04/16 06:51:52;;;;;;;21.08;13.73;;;332.90;1996.80;;;;;;4862315;29;20033;-64
2022/04/16 06:54:18;;;;;;;18.58;12.98;;;332.90;1971.20;;;;;;4860535;29;20080;-65
2022/04/16 06:56:43;;;;;;;14.93;10.98;;;332.90;1996.80;;;;;;4852182;29;20037;-64
2022/04/16 06:59:09;;;;;;;18.75;12.02;;;332.80;1971.20;;;;;;4843926;29;20163;-64
2022/04/16 07:01:35;;;;;;;16.48;11.20;;;332.90;1971.20;;;;;;4843412;29;20373;-64
2022/04/16 07:04:00;;;;;;;14.82;11.52;;;333.00;1971.20;;;;;;4843440;29;20030;-64
2022/04/16 07:06:26;;;;;;;17.50;11.27;;;333.20;1971.20;;;;;;4843258;29;20029;-65
2022/04/16 07:08:52;;;;;;;14.88;11.57;;;333.40;1971.20;;;;;;4848920;29;20064;-65
2022/04/16 07:11:18;;;;;;;14.35;11.68;;;333.40;1945.60;;;;;;4861719;29;20073;-65
2022/04/16 07:13:44;;;;;;;17.23;11.55;;;333.40;1920.00;;;;;;4844510;29;20045;-65
2022/04/16 07:16:09;;;;;;;16.27;11.07;;;333.60;1894.40;;;;;;4844790;29;20034;-65
2022/04/16 07:18:35;;;;;;;15.05;9.90;;;333.70;1843.20;;;;;;4861899;29;20061;-64
2022/04/16 07:21:01;;;;;;;15.50;9.98;;;358.40;1843.20;;;;;;4861829;29;20032;-64
2022/04/16 07:23:27;;;;;;;13.13;9.45;;;358.60;1817.60;;;;;;4860916;29;20540;-64
2022/04/16 07:25:52;;;;;;;12.57;9.80;;;358.70;1766.40;;;;;;4861438;29;20049;-64
2022/04/16 07:28:21;;;;;;;14.40;10.45;;;358.80;1766.40;;;;;;4861904;29;20033;-65
2022/04/16 07:30:48;;;;;;;13.32;10.52;;;359.00;1740.80;;;;;;4861458;29;20049;-65
2022/04/16 07:33:14;;;;;;;13.48;10.57;;;359.20;1766.40;;;;;;4861615;29;20045;-65
2022/04/16 07:35:40;;;;;;;12.57;9.70;;;384.10;1715.20;;;;;;4845029;29;20062;-64
2022/04/16 07:38:06;;;;;;;12.30;10.05;;;384.10;1689.60;;;;;;4861049;29;20034;-65
2022/04/16 07:40:33;;;;;;;13.88;9.73;;;384.30;1664.00;;;;;;4861494;29;20077;-64
2022/04/16 07:43:02;;;;;;;18.17;9.98;;;384.60;1715.20;;;;;;4844621;29;20500;-65
2022/04/16 07:45:29;;;;;;;13.35;10.18;;;384.90;1612.80;;;;;;4861563;29;20039;-65
2022/04/16 07:47:54;;;;;;;13.05;9.70;;;384.90;1561.60;;;;;;4860468;29;20036;-64
2022/04/16 07:50:20;;;;;;;11.60;8.88;;;409.60;1612.80;;;;;;4860417;29;20026;-64
2022/04/16 07:52:47;;;;;;;13.07;9.35;;;409.80;1587.20;;;;;;4861151;29;20396;-64
2022/04/16 07:55:17;;;;;;;12.88;8.85;;;409.80;1587.20;;;;;;4861664;29;20036;-64
2022/04/16 07:57:43;;;;;;;11.38;9.10;;;410.10;1536.00;;;;;;4844313;29;20488;-64
2022/04/16 08:00:10;;;;;;;13.40;9.43;;;410.10;1536.00;;;;;;4861153;29;20381;-64
2022/04/16 08:02:36;;;;;;;17.83;12.13;;;410.30;1510.40;;;;;;4861382;29;20026;-64
2022/04/16 08:05:02;;;;;;;16.00;10.23;;;410.50;1510.40;;;;;;4861052;29;20152;-64
2022/04/16 08:07:27;;;;;;;13.73;9.70;;;435.20;1484.80;;;;;;4861115;29;20034;-66
2022/04/16 08:09:53;;;;;;;13.35;9.13;;;435.30;1484.80;;;;;;4861043;29;20033;-65
2022/04/16 08:12:19;;;;;;;13.05;9.80;;;435.30;1459.20;;;;;;4861115;29;20082;-64
2022/04/16 08:14:45;;;;;;;12.50;9.05;;;435.40;1459.20;;;;;;4861200;29;20089;-64
2022/04/16 08:17:10;;;;;;;13.13;8.85;;;435.50;1433.60;;;;;;4861321;29;20029;-64
2022/04/16 08:19:36;;;;;;;13.23;9.38;;;435.50;1459.20;;;;;;4861008;29;20476;-64
2022/04/16 08:22:07;;;;;;;13.70;9.63;;;435.70;1433.60;;;;;;4861210;29;20042;-64
2022/04/16 08:27:02;;;;;;;13.18;9.63;;;435.90;1433.60;;;;;;4861091;29;20076;-64
2022/04/16 08:29:28;;;;;;;15.05;9.40;;;435.50;1433.60;;;;;;4861171;29;20511;-65
2022/04/16 08:31:54;;;;;;;12.70;9.07;;;435.50;1459.20;;;;;;4841263;29;20078;-63
2022/04/16 08:34:19;;;;;;;13.38;9.65;;;435.40;1433.60;;;;;;4842305;29;20034;-64
2022/04/16 08:36:45;;;;;;;13.57;9.73;;;435.40;1459.20;;;;;;4842036;29;20026;-67
2022/04/16 08:39:11;;;;;;;11.73;8.95;;;435.80;1433.60;;;;;;4842698;29;20030;-64
2022/04/16 08:41:39;;;;;;;12.23;8.40;;;435.90;1433.60;;;;;;4841356;29;20030;-66
2022/04/16 08:44:05;;;;;;;11.90;8.63;;;436.10;1408.00;;;;;;4842449;29;20037;-63
2022/04/16 08:46:32;;;;;;;11.35;9.20;;;435.90;1382.40;;;;;;4842593;29;20019;-64
2022/04/16 08:48:59;;;;;;;11.30;9.25;;;436.10;1408.00;;;;;;4842231;29;20034;-63
2022/04/16 08:51:28;;;;;;;14.68;9.48;;;460.90;1408.00;;;;;;4842703;29;20030;-63
2022/04/16 08:53:55;;;;;;;12.25;8.05;;;460.90;1382.40;;;;;;4841103;29;20052;-64
2022/04/16 08:56:21;;;;;;;11.57;8.77;;;460.90;1382.40;;;;;;4842617;29;20090;-64
2022/04/16 08:58:46;;;;;;;10.63;9.07;;;460.80;1408.00;;;;;;4843014;29;20030;-63
2022/04/16 09:01:12;;;;;;;14.32;10.30;;;461.10;1382.40;;;;;;4844600;29;20057;-64
2022/04/16 09:03:40;;;;;;;15.93;9.88;;;461.10;1408.00;;;;;;4845693;29;20034;-64
2022/04/16 09:06:07;;;;;;;16.60;9.82;;;461.20;1382.40;;;;;;4845716;29;20095;-64
2022/04/16 09:08:34;;;;;;;12.98;9.00;;;461.10;1356.80;;;;;;4844171;29;20129;-64
2022/04/16 09:11:11;;;;;;;15.85;7.60;;;461.10;1356.80;;;;;;4845327;29;20030;-63
2022/04/16 09:13:55;;;;;;;13.68;9.48;;;461.00;1331.20;;;;;;4845441;29;20045;-64
2022/04/16 09:16:22;;;;;;;11.07;9.05;;;461.20;1331.20;;;;;;4844201;29;20038;-64
2022/04/16 09:18:52;;;;;;;11.18;9.43;;;461.20;1331.20;;;;;;4845115;29;20034;-65
2022/04/16 09:21:19;;;;;;;10.80;8.93;;;461.00;1331.20;;;;;;4843978;29;20033;-67
2022/04/16 09:23:52;;;;;;;12.30;8.93;;;436.10;1331.20;;;;;;4845335;29;20086;-63
2022/04/16 09:26:32;;;;;;;12.45;9.00;;;460.90;1382.40;;;;;;4845238;29;20029;-64
2022/04/16 09:29:18;;;;;;;10.93;8.70;;;436.00;1331.20;;;;;;4844913;29;20026;-63
2022/04/16 09:31:49;;;;;;;12.68;8.07;;;436.00;1356.80;;;;;;4859841;29;20109;-66
2022/04/16 09:34:20;;;;;;;9.25;7.43;;;460.80;1382.40;;;;;;4846448;29;20408;-63
2022/04/16 09:36:46;;;;;;;10.30;7.63;;;461.00;1382.40;;;;;;4863264;29;20029;-64
2022/04/16 09:39:13;;;;;;;9.65;7.93;;;461.00;1331.20;;;;;;4864300;29;20032;-64
2022/04/16 09:41:41;;;;;;;12.80;9.48;;;461.20;1331.20;;;;;;4863299;29;20453;-67
2022/04/16 09:44:19;;;;;;;17.63;9.10;;;461.30;1331.20;;;;;;4863565;29;20029;-64
2022/04/16 09:46:46;;;;;;;9.82;7.63;;;461.30;1331.20;;;;;;4863349;29;20025;-65
2022/04/16 09:49:14;;;;;;;13.25;8.50;;;461.00;1331.20;;;;;;4863329;29;20082;-64
2022/04/16 09:51:42;;;;;;;8.82;7.38;;;461.30;1331.20;;;;;;4863083;29;20026;-64
2022/04/16 09:54:09;;;;;;;8.38;7.40;;;461.50;1305.60;;;;;;4863156;29;20052;-63
2022/04/16 09:56:37;;;;;;;9.43;7.43;;;486.40;1305.60;;;;;;4863272;29;20105;-63
2022/04/16 09:59:08;;;;;;;12.52;8.82;;;486.50;1254.40;;;;;;4863077;29;20040;-64
2022/04/16 10:01:35;;;;;;;9.07;8.15;;;486.60;1254.40;;;;;;4863093;29;20469;-63
2022/04/16 10:04:01;;;;;;;12.52;9.00;;;486.60;1228.80;;;;;;4862966;29;20034;-63
2022/04/16 10:06:28;;;;;;;10.45;7.40;;;486.60;1228.80;;;;;;4862952;29;20545;-63
2022/04/16 10:08:58;;;;;;;7.03;6.32;;;486.50;1228.80;;;;;;4863054;29;20081;-66
2022/04/16 10:14:26;;;;;;;10.38;7.63;;;486.80;1203.20;;;;;;4842420;29;20485;-63
2022/04/16 10:17:22;;;;;;;10.57;8.75;;;486.70;1228.80;;;;;;4842439;29;20125;-63
2022/04/16 10:19:49;;;;;;;13.10;7.20;;;486.60;1228.80;;;;;;4842248;29;20114;-65
2022/04/16 10:22:24;;;;;;;9.15;6.75;;;486.50;1254.40;;;;;;4826283;29;20038;-63
2022/04/16 10:24:53;;;;;;;11.15;8.00;;;486.40;1228.80;;;;;;4842253;29;20064;-64
2022/04/16 10:27:42;;;;;;;11.00;7.07;;;461.50;1254.40;;;;;;4842145;29;20037;-62
2022/04/16 10:30:12;;;;;;;8.48;6.80;;;461.50;1254.40;;;;;;4839315;29;20146;-63
2022/04/16 10:32:42;;;;;;;10.63;6.85;;;461.70;1254.40;;;;;;4824127;29;20054;-63
2022/04/16 10:35:13;;;;;;;11.05;7.40;;;486.40;1203.20;;;;;;4823894;29;20026;-64
2022/04/16 10:37:41;;;;;;;11.65;6.93;;;461.60;1228.80;;;;;;4808841;29;20070;-63
2022/04/16 10:40:20;;;;;;;9.60;6.80;;;461.50;1228.80;;;;;;4823808;29;20083;-63
2022/04/16 10:42:50;;;;;;;15.68;7.40;;;461.60;1280.00;;;;;;4823486;29;20030;-63
2022/04/16 10:45:16;;;;;;;12.52;6.75;;;486.40;1254.40;;;;;;4808243;29;20042;-63
2022/04/16 10:47:43;;;;;;;16.73;7.47;;;486.40;1228.80;;;;;;4823718;29;20436;-63
2022/04/16 10:50:15;;;;;;;12.50;7.15;;;486.40;1203.20;;;;;;4808794;29;20033;-63
2022/04/16 10:52:52;;;;;;;11.13;7.70;;;461.70;1203.20;;;;;;4843722;29;20042;-64
2022/04/16 10:55:20;;;;;;;11.95;6.95;;;486.40;1228.80;;;;;;4843777;29;20418;-63
2022/04/16 10:57:59;;;;;;;11.07;6.78;;;486.40;1228.80;;;;;;4843586;29;20030;-62
2022/04/16 11:00:44;;;;;;;12.95;7.70;;;461.60;1203.20;;;;;;4843431;29;20034;-63
2022/04/16 11:03:28;;;;;;;10.18;6.45;;;461.60;1228.80;;;;;;4843742;29;20112;-63
2022/04/16 11:06:20;;;;;;;9.90;6.88;;;461.50;1228.80;;;;;;4843660;29;20037;-62
2022/04/16 11:08:46;;;;;;;8.05;6.28;;;461.50;1228.80;;;;;;4823736;29;20039;-63
2022/04/16 11:11:13;;;;;;;22.15;13.43;;;486.40;1177.60;;;;;;4843332;29;20109;-62
2022/04/16 11:13:40;;;;;;;10.05;7.45;;;461.70;1203.20;;;;;;4843378;29;20042;-64
2022/04/16 11:16:07;;;;;;;16.38;9.23;;;486.50;1228.80;;;;;;4842851;29;20480;-63
2022/04/16 11:18:43;;;;;;;11.95;8.15;;;486.40;1177.60;;;;;;4843260;29;20038;-63
2022/04/16 11:21:18;;;;;;;11.27;6.65;;;461.60;1203.20;;;;;;4843185;29;20114;-62
2022/04/16 11:23:50;;;;;;;11.13;7.13;;;461.70;1203.20;;;;;;4826254;29;20034;-62
2022/04/16 11:34:43;;;;;;;10.38;7.45;;;461.70;1228.80;;;;;;4861594;29;20109;-62
2022/04/16 11:37:09;;;;;;;9.98;6.22;;;486.50;1228.80;;;;;;4844446;29;20480;-65
2022/04/16 11:39:35;;;;;;;23.30;11.13;;;486.60;1203.20;;;;;;4844832;29;20045;-62
2022/04/16 11:42:08;;;;;;;11.52;8.35;;;486.70;1254.40;;;;;;4844656;29;20385;-62
2022/04/16 11:44:38;;;;;;;9.80;6.90;;;486.90;1177.60;;;;;;4861293;29;20041;-64
2022/04/16 11:47:10;;;;;;;14.15;9.13;;;487.00;1152.00;;;;;;4861363;29;20025;-63
2022/04/16 11:49:37;;;;;;;11.10;7.07;;;486.80;1177.60;;;;;;4861234;29;20089;-62
2022/04/16 11:52:04;;;;;;;8.48;5.47;;;486.70;1203.20;;;;;;4860666;29;20030;-62
2022/04/16 11:54:31;;;;;;;16.02;9.25;;;486.70;1177.60;;;;;;4861509;29;20040;-65
2022/04/16 11:56:57;;;;;;;8.50;6.07;;;486.40;1203.20;;;;;;4861062;29;20030;-63
2022/04/16 11:59:28;;;;;;;8.75;6.97;;;486.40;1203.20;;;;;;4844802;29;20034;-62
2022/04/16 12:02:08;;;;;;;11.48;7.20;;;486.50;1228.80;;;;;;4861418;29;20108;-64
2022/04/16 12:04:42;;;;;;;10.75;7.47;;;486.70;1228.80;;;;;;4861160;29;20089;-63
2022/04/16 12:07:14;;;;;;;12.40;8.50;;;486.80;1203.20;;;;;;4860991;29;20503;-63
2022/04/16 12:09:47;;;;;;;9.65;6.85;;;486.80;1203.20;;;;;;4861254;29;20049;-63
2022/04/16 12:12:15;;;;;;;9.52;6.63;;;486.70;1203.20;;;;;;4861364;29;20037;-63
2022/04/16 12:14:52;;;;;;;11.90;7.60;;;486.50;1203.20;;;;;;4861353;29;20041;-62
2022/04/16 12:17:26;;;;;;;11.68;7.68;;;486.50;1228.80;;;;;;4861365;29;20029;-62
2022/04/16 12:20:05;;;;;;;10.10;8.05;;;486.40;1228.80;;;;;;4861068;29;20037;-63
2022/04/16 12:22:49;;;;;;;12.68;10.15;;;461.60;1254.40;;;;;;4844538;29;20041;-62
2022/04/16 12:25:17;;;;;;;9.85;7.20;;;461.60;1280.00;;;;;;4861052;29;20070;-63
2022/04/16 12:27:44;;;;;;;10.90;7.55;;;461.60;1280.00;;;;;;4861222;29;20435;-62
2022/04/16 12:30:24;;;;;;;9.38;7.10;;;461.60;1254.40;;;;;;4860913;29;20045;-62
2022/04/16 12:32:56;;;;;;;8.73;6.82;;;461.60;1254.40;;;;;;4860921;29;20038;-63